Time;durP1;ratioP1;P1;durP2;ratioP2;P2;SDS_P1;SDS_P2;PMS_P1;PMS_P2;Temp;Humidity;BMP_temperature;BMP_pressure;BME280_temperature;BME280_humidity;BME280_pressure;Samples;Min_cycle;Max_cycle;Signal;HPM_P1;HPM_P2
2022/11/19 00:01:56;;;;;;;12.98;7.93;;;13.20;1.00;;;;;;5033826;28;20136;-55
2022/11/19 00:04:22;;;;;;;9.63;7.28;;;13.20;1.00;;;;;;5034157;28;20029;-53
2022/11/19 00:06:49;;;;;;;9.18;7.85;;;13.20;1.00;;;;;;5034261;28;20037;-54
2022/11/19 00:09:15;;;;;;;11.68;8.95;;;13.20;1.00;;;;;;5034789;28;20061;-55
2022/11/19 00:14:25;;;;;;;15.17;8.90;;;13.20;1.00;;;;;;5034195;28;20108;-56
2022/11/19 00:16:51;;;;;;;9.57;8.52;;;13.10;1.00;;;;;;5034622;28;20033;-56
2022/11/19 00:19:16;;;;;;;11.32;8.73;;;13.20;1.00;;;;;;5034600;28;20075;-55
2022/11/19 00:21:42;;;;;;;13.00;8.95;;;13.10;1.00;;;;;;5034426;28;20072;-53
2022/11/19 00:24:07;;;;;;;14.85;8.27;;;13.10;1.00;;;;;;5034697;28;20022;-55
2022/11/19 00:26:34;;;;;;;11.70;8.73;;;13.20;1.00;;;;;;5034341;28;20021;-52
2022/11/19 00:29:00;;;;;;;10.57;7.78;;;13.10;1.00;;;;;;5034582;28;20033;-51
2022/11/19 00:31:25;;;;;;;12.35;8.48;;;13.10;1.00;;;;;;5034237;28;20071;-51
2022/11/19 00:33:53;;;;;;;13.95;9.45;;;13.10;1.00;;;;;;5034443;28;20030;-50
2022/11/19 00:36:19;;;;;;;15.05;9.98;;;13.10;1.00;;;;;;5033133;28;20068;-53
2022/11/19 00:38:44;;;;;;;11.25;9.98;;;13.10;1.00;;;;;;5034094;28;20057;-50
2022/11/19 00:41:10;;;;;;;13.98;11.68;;;13.10;1.00;;;;;;5034110;28;20444;-52
2022/11/19 00:43:51;;;;;;;18.70;12.20;;;13.10;1.00;;;;;;5034213;28;20040;-52
2022/11/19 00:46:16;;;;;;;16.02;12.63;;;13.10;1.00;;;;;;5033817;28;20040;-51
2022/11/19 00:48:43;;;;;;;19.38;11.82;;;13.10;1.00;;;;;;5032760;28;20033;-49
2022/11/19 00:51:09;;;;;;;18.00;13.25;;;13.00;1.00;;;;;;5034378;28;20387;-51
2022/11/19 00:53:35;;;;;;;17.25;12.38;;;13.10;1.00;;;;;;5033712;28;20041;-50
2022/11/19 00:56:06;;;;;;;18.67;13.20;;;13.00;1.00;;;;;;5033470;28;20471;-50
2022/11/19 00:58:33;;;;;;;20.75;13.32;;;13.10;1.00;;;;;;5034206;28;20087;-51
2022/11/19 01:00:58;;;;;;;19.92;14.32;;;13.10;1.00;;;;;;5034503;28;20025;-56
2022/11/19 01:03:24;;;;;;;19.58;15.05;;;13.10;1.00;;;;;;5033621;28;20052;-51
2022/11/19 01:05:50;;;;;;;23.23;15.77;;;13.10;1.00;;;;;;5033830;28;20041;-50
2022/11/19 01:08:16;;;;;;;23.23;16.50;;;13.10;1.00;;;;;;5033364;28;20029;-52
2022/11/19 01:10:43;;;;;;;25.80;17.98;;;13.10;1.00;;;;;;5027646;28;20100;-50
2022/11/19 01:15:53;;;;;;;20.55;15.52;;;13.10;1.00;;;;;;5033586;28;20037;-51
2022/11/19 01:18:22;;;;;;;21.38;16.40;;;13.10;1.00;;;;;;5033574;28;20025;-51
2022/11/19 01:20:48;;;;;;;23.50;17.00;;;13.10;1.00;;;;;;5033704;28;20390;-51
2022/11/19 01:23:13;;;;;;;19.77;16.00;;;13.10;1.00;;;;;;5033624;28;20108;-53
2022/11/19 01:25:39;;;;;;;25.02;17.48;;;13.10;1.00;;;;;;5031498;28;20189;-56
2022/11/19 01:28:05;;;;;;;22.52;16.38;;;13.10;1.00;;;;;;5031655;28;20028;-57
2022/11/19 01:30:31;;;;;;;23.75;16.85;;;13.10;1.00;;;;;;5031478;28;20092;-50
2022/11/19 01:32:56;;;;;;;27.83;17.67;;;13.00;1.00;;;;;;5033097;28;20026;-53
2022/11/19 01:35:22;;;;;;;26.77;17.20;;;13.00;1.00;;;;;;5033430;28;20033;-51
2022/11/19 01:37:48;;;;;;;22.80;16.75;;;13.10;1.00;;;;;;5032185;28;20028;-53
2022/11/19 01:40:14;;;;;;;24.38;17.42;;;13.10;1.00;;;;;;5032972;28;20051;-51
2022/11/19 01:42:48;;;;;;;29.02;17.40;;;13.00;1.00;;;;;;5033033;28;20027;-52
2022/11/19 01:45:34;;;;;;;21.02;15.88;;;13.10;1.00;;;;;;5033041;28;20034;-58
2022/11/19 01:48:02;;;;;;;28.73;17.63;;;13.10;1.00;;;;;;5032517;28;20029;-56
2022/11/19 01:50:31;;;;;;;21.05;17.10;;;13.00;1.00;;;;;;5032706;28;20029;-56
2022/11/19 01:52:57;;;;;;;22.05;16.20;;;13.00;1.00;;;;;;5032750;28;20033;-54
2022/11/19 01:55:23;;;;;;;21.45;14.93;;;13.00;1.00;;;;;;5033282;28;20052;-53
2022/11/19 01:57:55;;;;;;;15.10;10.35;;;13.00;1.00;;;;;;5032857;28;20387;-52
2022/11/19 02:00:21;;;;;;;15.68;10.50;;;12.70;1.00;;;;;;5033154;28;20044;-53
2022/11/19 02:02:47;;;;;;;18.33;9.80;;;12.80;1.00;;;;;;5032688;28;20034;-56
2022/11/19 02:05:12;;;;;;;12.93;8.52;;;12.80;1.00;;;;;;5032839;28;20387;-53
2022/11/19 02:07:39;;;;;;;14.05;9.02;;;12.80;1.00;;;;;;5031753;28;20108;-52
2022/11/19 02:10:06;;;;;;;16.77;10.60;;;12.80;1.00;;;;;;5032435;28;20428;-58
2022/11/19 02:12:55;;;;;;;14.93;9.23;;;12.80;1.00;;;;;;5031984;28;20105;-51
2022/11/19 02:15:44;;;;;;;13.07;8.88;;;12.80;1.00;;;;;;5017696;28;20042;-55
2022/11/19 02:18:24;;;;;;;14.60;10.50;;;12.70;1.00;;;;;;5031511;28;20083;-52
2022/11/19 02:21:10;;;;;;;18.52;12.43;;;12.80;1.00;;;;;;5031591;28;20448;-53
2022/11/19 02:24:15;;;;;;;17.08;12.82;;;12.70;1.00;;;;;;5030873;28;20061;-56
2022/11/19 02:27:19;;;;;;;20.10;14.07;;;12.70;1.00;;;;;;5030621;28;20064;-51
2022/11/19 02:29:50;;;;;;;22.05;14.82;;;12.70;1.00;;;;;;5030806;28;20090;-48
2022/11/19 02:32:21;;;;;;;21.00;16.13;;;12.70;1.00;;;;;;5031208;28;20057;-50
2022/11/19 02:34:50;;;;;;;19.77;15.25;;;12.70;1.00;;;;;;5031116;28;20034;-52
2022/11/19 02:37:25;;;;;;;24.52;16.80;;;12.70;1.00;;;;;;5031365;28;20025;-51
2022/11/19 02:39:58;;;;;;;;;;;12.70;1.00;;;;;;5018647;28;20022;-55
2022/11/19 02:42:31;;;;;;;23.42;16.73;;;12.70;1.00;;;;;;5031691;28;19916;-55
2022/11/19 02:45:04;;;;;;;25.33;16.65;;;12.70;1.00;;;;;;5033244;28;20120;-53
2022/11/19 02:47:44;;;;;;;21.45;17.27;;;12.70;1.00;;;;;;5032039;28;20360;-53
2022/11/19 02:50:18;;;;;;;26.42;16.67;;;12.70;1.00;;;;;;5017372;28;20032;-51
2022/11/19 02:52:45;;;;;;;23.50;17.33;;;12.70;1.00;;;;;;5026921;28;20022;-53
2022/11/19 02:55:19;;;;;;;25.08;17.83;;;12.70;1.00;;;;;;5031839;28;20033;-53
2022/11/19 02:58:01;;;;;;;25.00;17.77;;;12.70;1.00;;;;;;5017973;28;20383;-53
2022/11/19 03:06:17;;;;;;;26.63;16.83;;;12.70;1.00;;;;;;5018650;28;20029;-52
2022/11/19 03:08:44;;;;;;;21.08;16.65;;;12.60;1.00;;;;;;5043246;28;20108;-50
2022/11/19 03:11:20;;;;;;;21.88;16.38;;;12.70;1.00;;;;;;5032044;28;20033;-56
2022/11/19 03:17:20;;;;;;;24.13;17.30;;;12.60;1.00;;;;;;5031936;28;20387;-51
2022/11/19 03:19:48;;;;;;;20.20;15.80;;;12.70;1.00;;;;;;5021594;28;20533;-51
2022/11/19 03:22:22;;;;;;;21.17;15.93;;;12.60;1.00;;;;;;5031990;28;20099;-49
2022/11/19 03:24:59;;;;;;;20.45;15.48;;;12.60;1.00;;;;;;5032016;28;20057;-50
2022/11/19 03:27:40;;;;;;;20.65;14.45;;;12.60;1.00;;;;;;5032188;28;20029;-49
2022/11/19 03:30:07;;;;;;;21.25;14.60;;;12.60;1.00;;;;;;5034686;28;20079;-54
2022/11/19 03:32:52;;;;;;;18.55;12.82;;;12.50;1.00;;;;;;5032413;28;20037;-50
2022/11/19 03:35:26;;;;;;;16.98;13.00;;;12.50;1.00;;;;;;5035579;28;20034;-53
2022/11/19 03:37:55;;;;;;;15.23;10.90;;;12.50;1.00;;;;;;5041495;28;20021;-53
2022/11/19 03:40:23;;;;;;;14.25;10.00;;;12.40;1.00;;;;;;5035526;28;20550;-52
2022/11/19 03:42:51;;;;;;;13.30;7.60;;;12.50;1.00;;;;;;5035153;28;20033;-49
2022/11/19 03:45:23;;;;;;;11.02;7.10;;;12.50;1.00;;;;;;5035316;28;20383;-50
2022/11/19 03:47:50;;;;;;;10.48;7.50;;;12.40;1.00;;;;;;5034901;28;20034;-51
2022/11/19 03:50:20;;;;;;;9.15;7.00;;;12.40;1.00;;;;;;5035240;28;20021;-52
2022/11/19 03:52:45;;;;;;;9.60;6.68;;;12.20;1.00;;;;;;5034764;28;20034;-49
2022/11/19 03:55:11;;;;;;;9.18;5.63;;;12.30;1.00;;;;;;5031714;28;20084;-51
2022/11/19 03:57:38;;;;;;;10.10;6.38;;;12.30;1.00;;;;;;5035051;28;20091;-49
2022/11/19 04:00:04;;;;;;;9.48;7.22;;;12.30;1.00;;;;;;5034691;28;20017;-49
2022/11/19 04:02:30;;;;;;;11.15;6.20;;;12.30;1.00;;;;;;5033372;28;20499;-52
2022/11/19 04:04:55;;;;;;;7.28;5.50;;;12.30;1.00;;;;;;5035262;28;20025;-49
2022/11/19 04:07:22;;;;;;;9.02;5.78;;;12.30;1.00;;;;;;5040026;28;20025;-50
2022/11/19 04:09:48;;;;;;;7.60;5.70;;;12.30;1.00;;;;;;5035007;28;20029;-49
2022/11/19 04:12:22;;;;;;;7.45;5.35;;;12.30;1.00;;;;;;5034593;28;20471;-49
2022/11/19 04:14:49;;;;;;;9.65;5.80;;;12.30;1.00;;;;;;5021593;28;20395;-54
2022/11/19 04:17:15;;;;;;;5.70;4.38;;;12.30;1.00;;;;;;5032503;28;20463;-54
2022/11/19 04:19:41;;;;;;;7.53;5.15;;;12.30;1.00;;;;;;5033691;28;20112;-56
2022/11/19 04:22:07;;;;;;;6.40;3.92;;;12.30;1.00;;;;;;5033125;28;20057;-55
2022/11/19 04:24:33;;;;;;;6.82;4.10;;;12.20;1.00;;;;;;5034579;28;20041;-55
2022/11/19 04:26:59;;;;;;;6.85;4.00;;;12.30;1.00;;;;;;5034415;28;20029;-54
2022/11/19 04:29:24;;;;;;;5.55;3.78;;;12.30;1.00;;;;;;5035029;28;20021;-54
2022/11/19 04:31:50;;;;;;;6.78;4.57;;;12.20;1.00;;;;;;5025994;28;20100;-55
2022/11/19 04:34:15;;;;;;;7.32;4.38;;;12.20;1.00;;;;;;5022900;28;20404;-54
2022/11/19 04:36:41;;;;;;;4.30;3.42;;;12.20;1.00;;;;;;5033435;28;20110;-51
2022/11/19 04:39:11;;;;;;;6.60;4.15;;;12.30;1.00;;;;;;5033992;28;20029;-49
2022/11/19 04:41:38;;;;;;;7.47;4.32;;;12.30;1.00;;;;;;5034097;28;20067;-54
2022/11/19 04:44:04;;;;;;;8.52;5.43;;;12.20;1.00;;;;;;5034271;28;20035;-54
2022/11/19 04:46:30;;;;;;;11.38;6.03;;;12.20;1.00;;;;;;5034287;28;20382;-53
2022/11/19 04:48:56;;;;;;;9.00;6.32;;;12.20;1.00;;;;;;5034066;28;20380;-49
2022/11/19 04:51:23;;;;;;;11.13;7.75;;;12.30;1.00;;;;;;5041946;28;20033;-55
2022/11/19 04:53:49;;;;;;;11.30;8.55;;;12.30;1.00;;;;;;5034203;28;20048;-53
2022/11/19 04:56:14;;;;;;;13.20;10.93;;;12.20;1.00;;;;;;5033880;28;20017;-54
2022/11/19 04:58:40;;;;;;;14.20;10.68;;;12.20;1.00;;;;;;5034984;28;20037;-54
2022/11/19 05:01:06;;;;;;;14.82;11.60;;;12.20;1.00;;;;;;5033709;28;20030;-55
2022/11/19 05:03:32;;;;;;;19.95;12.52;;;12.20;1.00;;;;;;5033720;28;20049;-50
2022/11/19 05:05:58;;;;;;;15.73;11.75;;;12.20;1.00;;;;;;5033482;28;20100;-55
2022/11/19 05:08:23;;;;;;;16.98;11.30;;;12.20;1.00;;;;;;5033473;28;20116;-53
2022/11/19 05:10:49;;;;;;;16.02;11.23;;;12.20;1.00;;;;;;5033624;28;20517;-53
2022/11/19 05:13:15;;;;;;;15.40;11.43;;;12.10;1.00;;;;;;5034044;28;20190;-55
2022/11/19 05:15:44;;;;;;;16.50;11.43;;;12.10;1.00;;;;;;5046800;28;20123;-55
2022/11/19 05:18:10;;;;;;;14.93;11.20;;;12.10;1.00;;;;;;5033688;28;20227;-50
2022/11/19 05:20:36;;;;;;;14.55;11.23;;;12.10;1.00;;;;;;5032189;28;20426;-50
2022/11/19 05:23:01;;;;;;;13.77;10.63;;;12.10;1.00;;;;;;5033337;28;20025;-49
2022/11/19 05:25:27;;;;;;;13.90;11.80;;;12.10;1.00;;;;;;5033542;28;20057;-49
2022/11/19 05:27:53;;;;;;;16.75;11.50;;;12.10;1.00;;;;;;5032010;28;20117;-52
2022/11/19 05:30:18;;;;;;;15.15;11.43;;;12.10;1.00;;;;;;5032756;28;20059;-54
2022/11/19 05:32:45;;;;;;;11.27;9.93;;;12.00;1.00;;;;;;5032521;28;20557;-51
2022/11/19 05:35:10;;;;;;;13.73;9.95;;;12.00;1.00;;;;;;5031793;28;20055;-50
2022/11/19 05:37:36;;;;;;;16.95;11.35;;;12.10;1.00;;;;;;5033351;28;20526;-49
2022/11/19 05:40:02;;;;;;;15.20;9.98;;;12.10;1.00;;;;;;5021197;28;20034;-51
2022/11/19 05:42:28;;;;;;;12.98;8.35;;;12.10;1.00;;;;;;5027527;28;20476;-49
2022/11/19 05:44:53;;;;;;;13.27;9.30;;;12.10;1.00;;;;;;5033490;28;20021;-53
2022/11/19 05:47:19;;;;;;;10.85;8.57;;;12.20;1.00;;;;;;5031905;28;20112;-50
2022/11/19 05:49:45;;;;;;;14.18;8.93;;;12.20;1.00;;;;;;5032844;28;20025;-51
2022/11/19 05:52:10;;;;;;;15.02;9.60;;;12.10;1.00;;;;;;5031307;28;20471;-50
2022/11/19 05:54:36;;;;;;;13.45;9.10;;;12.10;1.00;;;;;;5032541;28;20076;-50
2022/11/19 05:57:03;;;;;;;12.82;8.95;;;12.10;1.00;;;;;;5032633;28;20025;-53
2022/11/19 05:59:28;;;;;;;11.73;8.68;;;12.10;1.00;;;;;;5025233;28;20018;-54
2022/11/19 06:01:54;;;;;;;13.25;8.85;;;12.10;1.00;;;;;;5032314;28;20041;-53
2022/11/19 06:04:19;;;;;;;14.75;9.20;;;12.10;1.00;;;;;;5032541;28;20406;-52
2022/11/19 06:06:45;;;;;;;10.18;8.20;;;12.10;1.00;;;;;;5033259;28;20075;-50
2022/11/19 06:09:11;;;;;;;13.85;9.20;;;12.10;1.00;;;;;;5038993;28;20467;-54
2022/11/19 06:11:51;;;;;;;14.10;8.32;;;12.20;1.00;;;;;;5033241;28;20083;-52
2022/11/19 06:14:21;;;;;;;12.25;8.32;;;12.10;1.00;;;;;;5032186;28;20033;-52
2022/11/19 06:16:47;;;;;;;12.43;7.60;;;12.10;1.00;;;;;;5032881;28;20053;-53
2022/11/19 06:19:13;;;;;;;9.77;6.68;;;12.10;1.00;;;;;;5032299;28;20049;-49
2022/11/19 06:21:38;;;;;;;9.35;6.32;;;12.10;1.00;;;;;;5032713;28;20431;-53
2022/11/19 06:24:04;;;;;;;7.85;5.18;;;12.10;1.00;;;;;;5032171;28;20479;-51
2022/11/19 06:26:30;;;;;;;9.27;5.88;;;12.10;1.00;;;;;;5032496;28;20502;-52
2022/11/19 06:28:56;;;;;;;7.38;5.57;;;12.10;1.00;;;;;;5035169;28;20041;-55
2022/11/19 06:31:22;;;;;;;7.18;4.50;;;12.10;1.00;;;;;;5036178;28;20072;-50
2022/11/19 06:33:48;;;;;;;9.05;5.20;;;12.10;1.00;;;;;;5032578;28;20038;-51
2022/11/19 06:36:14;;;;;;;8.73;5.25;;;12.10;1.00;;;;;;5032491;28;20112;-52
2022/11/19 06:38:40;;;;;;;7.75;4.53;;;12.10;1.00;;;;;;5032044;28;20112;-51
2022/11/19 06:41:06;;;;;;;7.63;4.60;;;12.10;1.00;;;;;;5032144;28;20022;-54
2022/11/19 06:43:31;;;;;;;7.25;4.63;;;12.10;1.00;;;;;;5032349;28;20028;-54
2022/11/19 06:45:57;;;;;;;6.45;5.22;;;12.00;1.00;;;;;;5032279;28;20112;-53
2022/11/19 06:48:23;;;;;;;6.85;5.15;;;12.10;1.00;;;;;;5032483;28;20047;-56
2022/11/19 06:50:48;;;;;;;6.70;5.05;;;11.90;1.00;;;;;;5032896;28;20025;-59
2022/11/19 06:53:14;;;;;;;8.38;5.78;;;12.00;1.00;;;;;;5027761;28;22328;-56
2022/11/19 06:55:40;;;;;;;9.00;5.95;;;12.00;1.00;;;;;;5031750;28;20033;-56
2022/11/19 06:58:07;;;;;;;10.20;7.15;;;12.00;1.00;;;;;;5032148;28;20357;-56
2022/11/19 07:00:33;;;;;;;8.05;6.90;;;12.00;1.00;;;;;;5020739;28;20105;-56
2022/11/19 07:02:59;;;;;;;12.00;6.88;;;12.10;1.00;;;;;;5032909;28;20099;-56
2022/11/19 07:05:25;;;;;;;9.43;6.18;;;12.10;1.00;;;;;;5036060;28;20025;-50
2022/11/19 07:07:51;;;;;;;12.15;6.80;;;12.10;1.00;;;;;;5036412;28;20025;-53
2022/11/19 07:10:17;;;;;;;11.20;6.75;;;12.20;1.00;;;;;;5036115;28;20075;-55
2022/11/19 07:12:42;;;;;;;13.13;7.72;;;12.20;1.00;;;;;;5040360;28;20033;-54
2022/11/19 07:15:09;;;;;;;12.20;8.48;;;12.20;1.00;;;;;;5035880;28;20392;-55
2022/11/19 07:17:34;;;;;;;12.00;8.02;;;12.30;1.00;;;;;;5036061;28;20034;-57
2022/11/19 07:20:00;;;;;;;13.55;9.15;;;12.30;1.00;;;;;;5035706;28;20107;-56
2022/11/19 07:22:26;;;;;;;19.33;12.77;;;12.30;1.00;;;;;;5035732;28;20041;-55
2022/11/19 07:24:52;;;;;;;20.15;11.35;;;12.30;1.00;;;;;;5035993;28;20080;-56
2022/11/19 07:27:18;;;;;;;19.65;11.48;;;12.30;1.00;;;;;;5036083;28;20036;-54
2022/11/19 07:29:43;;;;;;;19.90;12.45;;;12.30;1.00;;;;;;5038872;28;20502;-54
2022/11/19 07:32:09;;;;;;;22.77;14.20;;;12.30;1.00;;;;;;5034177;28;20124;-53
2022/11/19 07:34:34;;;;;;;21.48;14.82;;;12.30;1.00;;;;;;5035407;28;20045;-57
2022/11/19 07:37:00;;;;;;;22.73;15.35;;;12.30;1.00;;;;;;5035188;28;20094;-54
2022/11/19 07:39:26;;;;;;;25.90;13.35;;;12.30;1.00;;;;;;5035212;28;20038;-56
2022/11/19 07:44:36;;;;;;;18.47;12.17;;;12.40;1.00;;;;;;5035549;28;20087;-55
2022/11/19 07:47:01;;;;;;;18.35;11.80;;;12.40;1.00;;;;;;5034835;28;20268;-58
2022/11/19 07:49:27;;;;;;;18.95;12.52;;;12.40;1.00;;;;;;5035307;28;20104;-52
2022/11/19 07:51:53;;;;;;;20.42;12.90;;;12.30;1.00;;;;;;5035246;28;20467;-56
2022/11/19 07:54:19;;;;;;;19.88;13.43;;;12.30;1.00;;;;;;5025523;28;20068;-52
2022/11/19 07:56:45;;;;;;;22.52;14.32;;;12.50;1.00;;;;;;5035464;28;20030;-52
2022/11/19 07:59:11;;;;;;;26.33;13.68;;;12.60;1.00;;;;;;5034844;28;20030;-52
2022/11/19 08:01:37;;;;;;;18.63;12.43;;;12.50;1.00;;;;;;5034978;28;20045;-52
2022/11/19 08:04:04;;;;;;;20.25;12.80;;;12.60;1.00;;;;;;5034786;28;20033;-54
2022/11/19 08:06:30;;;;;;;20.95;12.90;;;12.70;1.00;;;;;;5035065;28;20033;-54
2022/11/19 08:08:56;;;;;;;18.85;12.75;;;12.60;1.00;;;;;;5034543;28;20026;-55
2022/11/19 08:11:22;;;;;;;17.55;12.27;;;12.70;1.00;;;;;;5034972;28;20032;-53
2022/11/19 08:13:47;;;;;;;24.35;12.70;;;12.80;1.00;;;;;;5033800;28;20092;-52
2022/11/19 08:18:10;;;;;;;26.88;13.68;;;12.90;1.00;;;;;;5033215;28;20123;-56
2022/11/19 08:19:11;;;;;;;23.23;12.40;;;12.90;1.00;;;;;;5034548;28;20033;-53
2022/11/19 08:21:39;;;;;;;19.73;12.75;;;12.90;1.00;;;;;;5035246;28;20030;-52
2022/11/19 08:24:06;;;;;;;25.08;14.18;;;12.90;1.00;;;;;;5040513;28;20040;-56
2022/11/19 08:26:32;;;;;;;25.55;13.43;;;13.00;1.00;;;;;;5023876;28;20400;-55
2022/11/19 08:28:58;;;;;;;18.55;12.88;;;13.10;1.00;;;;;;5034371;28;20021;-52
2022/11/19 08:31:23;;;;;;;20.80;13.23;;;13.20;1.00;;;;;;5034368;28;20038;-53
2022/11/19 08:33:49;;;;;;;19.58;12.38;;;13.10;1.00;;;;;;5033810;28;20040;-53
2022/11/19 08:36:15;;;;;;;25.30;13.05;;;13.20;1.00;;;;;;5034242;28;20029;-53
2022/11/19 08:38:40;;;;;;;20.20;12.20;;;13.20;1.00;;;;;;5034350;28;20086;-52
2022/11/19 08:43:50;;;;;;;19.55;12.45;;;13.20;1.00;;;;;;5033338;28;20040;-53
2022/11/19 08:46:15;;;;;;;15.85;11.63;;;13.20;1.00;;;;;;5032869;28;20033;-52
2022/11/19 08:48:41;;;;;;;19.08;12.52;;;13.20;1.00;;;;;;5034079;28;20079;-53
2022/11/19 08:51:09;;;;;;;20.30;12.63;;;13.20;1.00;;;;;;5032331;28;20052;-56
2022/11/19 08:53:35;;;;;;;21.67;12.70;;;13.20;1.00;;;;;;5033704;28;20037;-57
2022/11/19 08:56:01;;;;;;;17.80;11.82;;;13.20;1.00;;;;;;5032516;28;20025;-53
2022/11/19 08:58:26;;;;;;;22.80;12.85;;;13.30;1.00;;;;;;5022738;28;20108;-51
2022/11/19 09:00:53;;;;;;;21.10;13.18;;;13.30;1.00;;;;;;5033977;28;20041;-54
2022/11/19 09:03:18;;;;;;;22.60;13.43;;;13.30;1.00;;;;;;5032900;28;20056;-51
2022/11/19 09:05:44;;;;;;;20.50;13.52;;;13.30;1.00;;;;;;5028876;28;20120;-54
2022/11/19 09:08:10;;;;;;;20.10;12.88;;;13.40;1.00;;;;;;5033601;28;20409;-55
2022/11/19 09:10:37;;;;;;;20.08;14.85;;;13.40;1.00;;;;;;5032293;28;20025;-51
2022/11/19 09:13:04;;;;;;;20.05;13.88;;;13.40;1.00;;;;;;5033507;28;20032;-51
2022/11/19 09:15:29;;;;;;;21.42;15.60;;;13.30;1.00;;;;;;5032494;28;20037;-58
2022/11/19 09:17:55;;;;;;;22.92;15.73;;;13.30;1.00;;;;;;5033599;28;20105;-57
2022/11/19 09:20:20;;;;;;;21.85;14.50;;;13.40;1.00;;;;;;5034105;28;20147;-54
2022/11/19 09:22:46;;;;;;;25.10;14.85;;;13.40;1.00;;;;;;5033588;28;20155;-57
2022/11/19 09:25:12;;;;;;;25.20;16.13;;;13.50;1.00;;;;;;5032130;28;20025;-57
2022/11/19 09:27:37;;;;;;;22.30;16.63;;;13.50;1.00;;;;;;5030658;28;20029;-57
2022/11/19 09:30:04;;;;;;;21.48;14.85;;;13.50;1.00;;;;;;5032950;28;20029;-54
2022/11/19 09:32:30;;;;;;;20.50;15.13;;;13.50;1.00;;;;;;5033175;28;20112;-52
2022/11/19 09:34:56;;;;;;;23.80;15.32;;;13.50;1.00;;;;;;5032867;28;20510;-55
2022/11/19 09:37:22;;;;;;;23.65;15.57;;;13.50;1.00;;;;;;5032968;28;20025;-57
2022/11/19 09:39:47;;;;;;;24.05;15.93;;;13.50;1.00;;;;;;5031741;28;20026;-57
2022/11/19 09:42:15;;;;;;;23.58;14.95;;;13.50;1.00;;;;;;5035781;28;20033;-57
2022/11/19 09:45:15;;;;;;;23.58;16.88;;;13.50;1.00;;;;;;5033116;28;20490;-58
2022/11/19 09:47:43;;;;;;;27.77;16.17;;;13.60;1.00;;;;;;5033399;28;20032;-57
2022/11/19 09:50:44;;;;;;;29.80;19.20;;;13.70;1.00;;;;;;5031618;28;20386;-55
2022/11/19 09:53:18;;;;;;;27.27;19.38;;;13.70;1.00;;;;;;4988594;28;20491;-57
2022/11/19 09:55:46;;;;;;;28.05;19.67;;;13.80;1.00;;;;;;5032905;28;20037;-55
2022/11/19 09:58:40;;;;;;;26.92;19.70;;;13.80;1.00;;;;;;5033147;28;20479;-55
2022/11/19 10:01:09;;;;;;;25.90;18.92;;;13.90;1.00;;;;;;5031655;28;20025;-56
2022/11/19 10:03:39;;;;;;;28.02;19.38;;;13.80;1.00;;;;;;5027983;28;20133;-60
2022/11/19 10:06:14;;;;;;;26.75;20.05;;;13.90;1.00;;;;;;5024576;28;20045;-59
2022/11/19 10:08:45;;;;;;;31.17;20.35;;;14.00;1.00;;;;;;5033062;28;20125;-60
2022/11/19 10:11:34;;;;;;;28.45;19.67;;;14.00;1.00;;;;;;5032966;28;20034;-60
2022/11/19 10:14:03;;;;;;;34.50;20.75;;;14.00;1.00;;;;;;5019454;28;20117;-60
2022/11/19 10:16:31;;;;;;;28.80;19.45;;;14.00;1.00;;;;;;5032929;28;20048;-60
2022/11/19 10:19:15;;;;;;;27.73;20.73;;;14.00;1.00;;;;;;5032691;28;20041;-60
2022/11/19 10:21:44;;;;;;;30.48;20.70;;;14.10;1.00;;;;;;5033031;28;20040;-59
2022/11/19 10:24:17;;;;;;;33.08;20.75;;;14.00;1.00;;;;;;5032578;28;20108;-59
2022/11/19 10:27:01;;;;;;;31.35;20.15;;;14.00;1.00;;;;;;5032860;28;20083;-58
2022/11/19 10:29:35;;;;;;;28.08;19.67;;;14.00;1.00;;;;;;5032698;28;20498;-58
2022/11/19 10:32:41;;;;;;;29.85;20.70;;;14.00;1.00;;;;;;5023036;28;20030;-58
2022/11/19 10:35:15;;;;;;;30.33;19.60;;;14.10;1.00;;;;;;5010540;28;20117;-58
2022/11/19 10:37:58;;;;;;;30.60;19.77;;;14.10;1.00;;;;;;5031129;28;20029;-58
2022/11/19 10:40:28;;;;;;;30.88;19.90;;;14.10;1.00;;;;;;5036642;28;20264;-60
2022/11/19 10:43:36;;;;;;;29.35;21.40;;;14.20;1.00;;;;;;5036556;28;20025;-58
2022/11/19 10:46:04;;;;;;;28.15;20.40;;;14.40;1.00;;;;;;5023030;28;20037;-59
2022/11/19 10:48:41;;;;;;;28.15;20.48;;;14.50;1.00;;;;;;5036550;28;20041;-59
2022/11/19 10:51:20;;;;;;;30.05;20.60;;;14.50;1.00;;;;;;5023106;28;20026;-58
2022/11/19 10:53:46;;;;;;;30.90;20.88;;;14.40;1.00;;;;;;5036011;28;20040;-58
2022/11/19 10:56:17;;;;;;;32.20;20.88;;;14.50;1.00;;;;;;5036338;28;20025;-59
2022/11/19 10:59:15;;;;;;;29.92;21.60;;;14.60;1.00;;;;;;5036273;28;20026;-59
2022/11/19 11:01:43;;;;;;;29.10;21.27;;;14.70;1.00;;;;;;5018028;28;20029;-59
2022/11/19 11:04:27;;;;;;;29.77;21.60;;;14.70;1.00;;;;;;5036285;28;20395;-58
2022/11/19 11:06:56;;;;;;;29.25;19.58;;;14.80;1.00;;;;;;5036097;28;20040;-58
2022/11/19 11:09:39;;;;;;;27.50;20.17;;;14.80;1.00;;;;;;5036281;28;21768;-58
2022/11/19 11:15:14;;;;;;;29.88;21.35;;;14.90;1.00;;;;;;5035815;28;20407;-59
2022/11/19 11:17:41;;;;;;;32.08;22.52;;;15.00;1.00;;;;;;5036021;28;20028;-58
2022/11/19 11:20:07;;;;;;;30.67;20.75;;;14.70;1.00;;;;;;5022135;28;20044;-58
2022/11/19 11:22:34;;;;;;;30.55;21.23;;;14.80;1.00;;;;;;5034649;28;20467;-58
2022/11/19 11:25:00;;;;;;;28.23;19.83;;;14.90;1.00;;;;;;5035624;28;20101;-58
2022/11/19 11:27:34;;;;;;;26.33;20.17;;;14.90;1.00;;;;;;5034578;28;20022;-58
2022/11/19 11:30:12;;;;;;;30.75;21.38;;;14.90;1.00;;;;;;5035809;28;20395;-58
2022/11/19 11:32:39;;;;;;;29.55;20.85;;;15.00;1.00;;;;;;5035864;28;20072;-59
2022/11/19 11:35:22;;;;;;;28.17;21.30;;;15.10;1.00;;;;;;5035375;28;20490;-58
2022/11/19 11:37:48;;;;;;;30.23;20.27;;;15.10;1.00;;;;;;5035657;28;20494;-59
2022/11/19 11:40:22;;;;;;;25.45;19.30;;;15.10;1.00;;;;;;5035412;28;20033;-59
2022/11/19 11:42:48;;;;;;;27.45;19.52;;;15.10;1.00;;;;;;5035556;28;20025;-59
2022/11/19 11:45:32;;;;;;;25.00;17.90;;;15.00;1.00;;;;;;5035435;28;20017;-59
2022/11/19 11:48:03;;;;;;;29.05;19.38;;;15.00;1.00;;;;;;5035564;28;20033;-58
2022/11/19 11:50:28;;;;;;;31.55;20.92;;;15.10;1.00;;;;;;5034210;28;20502;-59
2022/11/19 11:52:56;;;;;;;29.80;21.73;;;15.00;1.00;;;;;;5028868;28;20026;-60
2022/11/19 11:55:22;;;;;;;31.67;22.58;;;15.10;1.00;;;;;;5035092;28;20033;-60
2022/11/19 11:58:24;;;;;;;37.33;22.67;;;15.10;1.00;;;;;;5035311;28;20079;-60
2022/11/19 12:00:54;;;;;;;30.77;21.63;;;15.00;1.00;;;;;;5035088;28;20018;-58
2022/11/19 12:03:20;;;;;;;29.10;21.45;;;15.10;1.00;;;;;;5035022;28;20076;-58
2022/11/19 12:05:45;;;;;;;29.75;22.20;;;15.20;1.00;;;;;;5035015;28;20115;-59
2022/11/19 12:08:35;;;;;;;31.33;23.17;;;15.00;1.00;;;;;;5033476;28;20391;-58
2022/11/19 12:11:25;;;;;;;30.45;21.35;;;15.10;1.00;;;;;;5034794;28;20049;-58
2022/11/19 12:14:01;;;;;;;31.13;21.75;;;15.20;1.00;;;;;;5024667;28;20034;-58
2022/11/19 12:16:46;;;;;;;28.75;22.48;;;15.30;1.00;;;;;;5033991;28;20026;-58
2022/11/19 12:19:30;;;;;;;31.77;23.67;;;15.20;1.00;;;;;;5035048;28;20029;-58
2022/11/19 12:22:01;;;;;;;30.58;22.30;;;15.20;1.00;;;;;;5023334;28;20116;-58
2022/11/19 12:24:54;;;;;;;31.75;23.77;;;15.20;1.00;;;;;;5034272;28;20022;-58
2022/11/19 12:27:28;;;;;;;32.00;22.05;;;15.30;1.00;;;;;;5035084;28;20108;-58
2022/11/19 12:30:04;;;;;;;32.10;21.98;;;15.40;1.00;;;;;;5034581;28;20467;-58
2022/11/19 12:32:56;;;;;;;30.77;23.27;;;15.40;1.00;;;;;;5034606;28;20550;-58
2022/11/19 12:35:48;;;;;;;29.08;22.23;;;15.40;1.00;;;;;;5021763;28;20473;-58
2022/11/19 12:38:38;;;;;;;28.95;22.58;;;15.40;1.00;;;;;;5034556;28;20053;-58
2022/11/19 12:41:24;;;;;;;28.90;22.10;;;15.30;1.00;;;;;;5022457;28;20033;-58
2022/11/19 12:43:50;;;;;;;31.02;22.73;;;15.40;1.00;;;;;;5034572;28;20422;-58
2022/11/19 12:46:21;;;;;;;30.45;22.98;;;15.50;1.00;;;;;;5034580;28;20029;-58
2022/11/19 12:49:26;;;;;;;31.52;22.30;;;15.50;1.00;;;;;;5034400;28;20037;-59
2022/11/19 12:52:26;;;;;;;31.23;22.10;;;15.40;1.00;;;;;;5034187;28;20032;-59
2022/11/19 12:55:32;;;;;;;29.67;21.90;;;15.60;1.00;;;;;;5014676;28;20049;-59
2022/11/19 12:58:24;;;;;;;29.48;21.92;;;15.60;1.00;;;;;;5032064;28;20044;-59
2022/11/19 13:00:58;;;;;;;32.10;23.20;;;15.60;1.00;;;;;;5033613;28;20025;-58
2022/11/19 13:03:44;;;;;;;29.42;22.50;;;15.50;1.00;;;;;;5033832;28;20120;-59
2022/11/19 13:06:20;;;;;;;28.70;22.45;;;15.50;1.00;;;;;;5029055;28;20041;-59
2022/11/19 13:08:54;;;;;;;33.90;25.13;;;15.50;1.00;;;;;;5030774;28;20034;-59
2022/11/19 13:11:35;;;;;;;35.90;25.83;;;15.60;1.00;;;;;;5032504;28;20029;-59
2022/11/19 13:14:09;;;;;;;33.83;24.45;;;15.60;1.00;;;;;;5031911;28;20041;-59
2022/11/19 13:16:35;;;;;;;;;;;15.60;1.00;;;;;;5020152;28;20384;-59
2022/11/19 13:19:30;;;;;;;34.20;24.40;;;15.60;1.00;;;;;;5032729;28;19920;-59
2022/11/19 13:22:05;;;;;;;33.73;24.57;;;15.60;1.00;;;;;;5031378;28;20029;-59
2022/11/19 13:24:42;;;;;;;40.20;25.15;;;15.70;1.00;;;;;;5033441;28;20260;-59